createdAt,value
2019-02-26T00:01:50.489Z,66.94
2019-02-26T00:04:21.070Z,66.77
2019-02-26T00:06:51.491Z,66.75
2019-02-26T00:09:24.752Z,67.10
2019-02-26T00:11:54.123Z,67.22
2019-02-26T00:14:24.876Z,66.69
2019-02-26T00:16:55.639Z,66.69
2019-02-26T00:19:25.573Z,67.08
2019-02-26T00:21:55.366Z,67.35
2019-02-26T00:24:25.348Z,67.77
2019-02-26T00:26:55.584Z,68.11
2019-02-26T00:29:27.617Z,68.36
2019-02-26T00:31:57.850Z,68.53
2019-02-26T00:34:27.787Z,68.80
2019-02-26T00:36:59.460Z,68.43
2019-02-26T00:39:31.374Z,68.46
2019-02-26T00:42:02.710Z,68.49
2019-02-26T00:44:35.293Z,69.05
2019-02-26T00:47:06.679Z,69.09
2019-02-26T00:49:36.782Z,68.90
2019-02-26T00:52:08.693Z,68.74
2019-02-26T00:54:38.604Z,68.92
2019-02-26T00:57:09.456Z,68.94
2019-02-26T00:59:41.169Z,68.66
2019-02-26T01:02:12.010Z,68.62
2019-02-26T01:04:43.865Z,68.59
2019-02-26T01:07:13.497Z,68.68
2019-02-26T01:09:43.444Z,68.67
2019-02-26T01:12:14.463Z,68.70
2019-02-26T01:14:46.368Z,68.82
2019-02-26T01:17:18.858Z,68.77
2019-02-26T01:19:49.093Z,68.55
2019-02-26T01:22:19.048Z,68.38
2019-02-26T01:24:49.792Z,68.31
2019-02-26T01:27:20.667Z,68.27
2019-02-26T01:29:51.793Z,68.35
2019-02-26T01:32:24.601Z,68.33
2019-02-26T01:34:54.220Z,68.23
2019-02-26T01:37:25.352Z,68.06
2019-02-26T01:39:56.175Z,68.01
2019-02-26T01:42:27.111Z,68.16
2019-02-26T01:44:57.827Z,68.29
2019-02-26T01:47:28.514Z,68.35
2019-02-26T01:49:59.382Z,68.70
2019-02-26T01:52:29.443Z,69.01
2019-02-26T01:55:00.738Z,69.02
2019-02-26T01:57:32.354Z,69.11
2019-02-26T02:00:06.924Z,69.08
2019-02-26T02:02:38.009Z,68.73
2019-02-26T02:05:07.951Z,68.74
2019-02-26T02:07:37.881Z,68.63
2019-02-26T02:10:09.836Z,68.69
2019-02-26T02:12:41.485Z,68.43
2019-02-26T02:15:12.379Z,68.63
2019-02-26T02:17:43.884Z,68.99
2019-02-26T02:20:18.036Z,69.28
2019-02-26T02:22:46.892Z,69.06
2019-02-26T02:25:16.846Z,68.86
2019-02-26T02:27:49.773Z,68.76
2019-02-26T02:30:26.621Z,69.03
2019-02-26T02:32:54.080Z,69.15
2019-02-26T02:35:22.090Z,69.15
2019-02-26T02:37:53.530Z,69.29
2019-02-26T02:40:23.650Z,69.27
2019-02-26T02:42:53.612Z,69.39
2019-02-26T02:45:23.897Z,69.45
2019-02-26T02:47:57.672Z,69.48
2019-02-26T02:50:25.571Z,69.62
2019-02-26T02:52:59.227Z,70.06
2019-02-26T02:55:28.491Z,70.10
2019-02-26T02:58:00.461Z,70.00
2019-02-26T03:00:32.258Z,70.22
2019-02-26T03:03:02.517Z,70.36
2019-02-26T03:05:35.204Z,70.32
2019-02-26T03:08:05.229Z,70.28
2019-02-26T03:10:37.251Z,70.32
2019-02-26T03:13:07.227Z,70.70
2019-02-26T03:15:37.853Z,71.26
2019-02-26T03:18:09.909Z,71.17
2019-02-26T03:20:40.448Z,71.08
2019-02-26T03:23:15.688Z,70.69
2019-02-26T03:25:44.562Z,70.64
2019-02-26T03:28:15.321Z,70.62
2019-02-26T03:30:45.296Z,71.11
2019-02-26T03:33:15.285Z,71.02
2019-02-26T03:35:45.157Z,71.28
2019-02-26T03:38:17.809Z,71.22
2019-02-26T03:40:49.293Z,71.30
2019-02-26T03:43:18.770Z,71.13
2019-02-26T03:45:48.735Z,70.95
2019-02-26T03:48:20.088Z,70.80
2019-02-26T03:50:50.579Z,70.50
2019-02-26T03:53:25.566Z,70.21
2019-02-26T03:55:52.625Z,70.31
2019-02-26T03:58:23.561Z,70.80
2019-02-26T04:00:54.017Z,70.96
2019-02-26T04:03:23.980Z,70.86
2019-02-26T04:05:57.180Z,70.65
2019-02-26T04:08:27.161Z,70.57
2019-02-26T04:10:59.357Z,70.72
2019-02-26T04:13:29.443Z,70.67
2019-02-26T04:16:04.593Z,70.76
2019-02-26T04:18:34.889Z,70.56
2019-02-26T04:21:06.035Z,70.61
2019-02-26T04:23:38.931Z,70.46
2019-02-26T04:26:47.380Z,70.58
2019-02-26T04:29:46.733Z,70.20
2019-02-26T04:32:43.579Z,70.33
2019-02-26T04:36:09.739Z,70.56
2019-02-26T04:39:16.476Z,70.53
2019-02-26T04:41:56.024Z,70.39
2019-02-26T04:44:50.000Z,70.25
2019-02-26T04:47:26.786Z,70.14
2019-02-26T04:49:57.255Z,70.12
2019-02-26T04:52:29.604Z,70.03
2019-02-26T04:55:00.676Z,70.02
2019-02-26T04:57:31.050Z,70.12
2019-02-26T05:00:20.052Z,70.23
2019-02-26T05:02:50.019Z,70.16
2019-02-26T05:05:22.440Z,70.27
2019-02-26T05:07:52.316Z,70.77
2019-02-26T05:10:24.309Z,71.05
2019-02-26T05:12:57.233Z,71.32
2019-02-26T05:15:27.567Z,71.34
2019-02-26T05:17:58.126Z,71.48
2019-02-26T05:20:28.101Z,71.40
2019-02-26T05:23:01.043Z,71.41
2019-02-26T05:25:31.518Z,71.09
2019-02-26T05:28:03.794Z,71.22
2019-02-26T05:30:34.539Z,71.41
2019-02-26T05:33:05.573Z,71.59
2019-02-26T05:35:37.841Z,71.30
2019-02-26T05:38:09.532Z,71.50
2019-02-26T05:40:40.407Z,71.17
2019-02-26T05:43:10.872Z,71.14
2019-02-26T05:45:40.835Z,71.51
2019-02-26T05:48:12.480Z,71.68
2019-02-26T05:50:44.790Z,71.89
2019-02-26T05:53:15.231Z,71.99
2019-02-26T05:55:48.572Z,71.76
2019-02-26T05:58:19.383Z,71.78
2019-02-26T06:00:48.596Z,71.88
2019-02-26T06:03:18.871Z,71.97
2019-02-26T06:05:51.893Z,72.18
2019-02-26T06:08:25.732Z,72.03
2019-02-26T06:10:53.691Z,72.16
2019-02-26T06:13:23.728Z,72.54
2019-02-26T06:15:55.299Z,72.66
2019-02-26T06:18:25.688Z,72.53
2019-02-26T06:20:56.704Z,72.50
2019-02-26T06:23:28.173Z,72.24
2019-02-26T06:26:02.296Z,72.06
2019-02-26T06:28:35.400Z,71.80
2019-02-26T06:31:02.912Z,71.94
2019-02-26T06:33:36.081Z,72.41
2019-02-26T06:36:06.401Z,72.37
2019-02-26T06:38:36.445Z,72.70
2019-02-26T06:41:06.750Z,72.76
2019-02-26T06:43:39.648Z,72.70
2019-02-26T06:46:11.532Z,72.62
2019-02-26T06:48:40.288Z,72.89
2019-02-26T06:51:10.271Z,73.02
2019-02-26T06:53:40.214Z,73.32
2019-02-26T06:56:10.195Z,73.77
2019-02-26T06:58:42.408Z,73.78
2019-02-26T07:01:14.244Z,73.65
2019-02-26T07:03:43.796Z,73.58
2019-02-26T07:06:13.805Z,73.87
2019-02-26T07:08:45.004Z,73.96
2019-02-26T07:11:15.684Z,74.01
2019-02-26T07:13:46.492Z,73.95
2019-02-26T07:16:18.110Z,74.04
2019-02-26T07:18:48.457Z,74.37
2019-02-26T07:21:18.397Z,74.38
2019-02-26T07:23:48.389Z,74.25
2019-02-26T07:26:20.728Z,74.32
2019-02-26T07:28:51.089Z,74.34
2019-02-26T07:31:24.193Z,74.35
2019-02-26T07:33:55.736Z,74.45
2019-02-26T07:36:27.660Z,74.63
2019-02-26T07:38:57.343Z,74.71
2019-02-26T07:41:30.341Z,74.90
2019-02-26T07:44:00.927Z,75.00
2019-02-26T07:46:30.872Z,74.90
2019-02-26T07:49:04.592Z,74.77
2019-02-26T07:51:36.246Z,74.46
2019-02-26T07:54:05.634Z,74.50
2019-02-26T07:56:36.065Z,74.77
2019-02-26T07:59:09.417Z,74.78
2019-02-26T08:01:39.782Z,74.37
2019-02-26T08:04:11.619Z,74.15
2019-02-26T08:06:41.320Z,74.50
2019-02-26T08:09:13.953Z,74.84
2019-02-26T08:11:44.408Z,74.59
2019-02-26T08:14:16.107Z,74.33
2019-02-26T08:16:49.221Z,74.26
2019-02-26T08:19:18.326Z,74.20
2019-02-26T08:21:50.248Z,74.25
2019-02-26T08:24:23.829Z,73.91
2019-02-26T08:26:51.940Z,73.47
2019-02-26T08:29:24.538Z,73.24
2019-02-26T08:31:54.938Z,72.84
2019-02-26T08:34:26.211Z,72.47
2019-02-26T08:36:56.556Z,72.28
2019-02-26T08:39:26.611Z,72.29
2019-02-26T08:42:10.110Z,71.93
2019-02-26T08:44:40.539Z,71.66
2019-02-26T08:47:13.900Z,71.28
2019-02-26T08:49:45.650Z,71.08
2019-02-26T08:52:17.495Z,70.91
2019-02-26T08:54:47.862Z,70.95
2019-02-26T08:57:19.199Z,70.94
2019-02-26T08:59:50.443Z,70.56
2019-02-26T09:02:21.065Z,70.26
2019-02-26T09:04:51.668Z,69.85
2019-02-26T09:07:23.619Z,69.63
2019-02-26T09:09:55.354Z,69.57
2019-02-26T09:12:27.231Z,69.68
2019-02-26T09:14:57.695Z,69.54
2019-02-26T09:17:30.427Z,69.16
2019-02-26T09:20:09.431Z,68.79
2019-02-26T09:22:32.755Z,68.74
2019-02-26T09:25:04.919Z,67.99
2019-02-26T09:27:42.577Z,67.45
2019-02-26T09:30:11.713Z,67.25
2019-02-26T09:32:42.872Z,67.31
2019-02-26T09:35:16.267Z,67.39
2019-02-26T09:37:47.921Z,67.72
2019-02-26T09:40:20.091Z,68.06
2019-02-26T09:42:53.733Z,68.11
2019-02-26T09:45:23.654Z,67.51
2019-02-26T09:47:55.644Z,67.26
2019-02-26T09:50:25.384Z,66.99
2019-02-26T09:52:58.236Z,67.38
2019-02-26T09:55:27.025Z,67.22
2019-02-26T09:57:57.015Z,67.39
2019-02-26T10:00:29.448Z,66.76
2019-02-26T10:02:58.787Z,66.29
2019-02-26T10:05:28.739Z,65.99
2019-02-26T10:08:00.523Z,65.05
2019-02-26T10:10:33.501Z,65.04
2019-02-26T10:13:04.703Z,64.87
2019-02-26T10:15:37.293Z,64.23
2019-02-26T10:18:09.381Z,63.14
2019-02-26T10:20:38.920Z,62.96
2019-02-26T10:23:08.948Z,62.63
2019-02-26T10:25:39.031Z,61.80
2019-02-26T10:28:11.498Z,63.10
2019-02-26T10:30:41.734Z,62.74
2019-02-26T10:33:11.956Z,60.35
2019-02-26T10:35:45.101Z,60.17
2019-02-26T10:38:14.996Z,59.92
2019-02-26T10:40:53.482Z,59.62
2019-02-26T10:43:16.967Z,59.90
2019-02-26T10:45:47.444Z,59.27
2019-02-26T10:48:21.908Z,59.71
2019-02-26T10:50:51.928Z,59.26
2019-02-26T10:53:22.758Z,57.33
2019-02-26T10:55:53.056Z,57.57
2019-02-26T10:58:23.546Z,57.36
2019-02-26T11:00:55.574Z,55.60
2019-02-26T11:03:26.050Z,54.29
2019-02-26T11:05:56.649Z,53.76
2019-02-26T11:08:29.637Z,53.28
2019-02-26T11:10:58.433Z,52.34
2019-02-26T11:13:28.409Z,52.04
2019-02-26T11:15:59.863Z,52.03
2019-02-26T11:18:30.176Z,51.50
2019-02-26T11:21:00.136Z,51.73
2019-02-26T11:23:31.402Z,51.39
2019-02-26T11:26:01.711Z,51.40
2019-02-26T11:28:32.928Z,50.17
2019-02-26T11:31:03.383Z,49.95
2019-02-26T11:33:33.823Z,49.51
2019-02-26T11:36:05.534Z,49.12
2019-02-26T11:38:37.521Z,49.56
2019-02-26T11:41:07.917Z,48.92
2019-02-26T11:43:38.177Z,47.54
2019-02-26T11:46:08.762Z,47.26
2019-02-26T11:48:38.844Z,46.30
2019-02-26T11:51:08.817Z,46.33
2019-02-26T11:53:38.838Z,46.63
2019-02-26T11:56:08.797Z,46.64
2019-02-26T11:58:38.803Z,46.51
2019-02-26T12:01:14.044Z,46.08
2019-02-26T12:03:44.690Z,46.26
2019-02-26T12:06:14.949Z,46.82
2019-02-26T12:08:46.958Z,46.23
2019-02-26T12:11:19.854Z,45.49
2019-02-26T12:13:50.205Z,46.17
2019-02-26T12:16:20.775Z,45.93
2019-02-26T12:18:51.125Z,45.30
2019-02-26T12:21:21.504Z,44.38
2019-02-26T12:23:51.746Z,44.46
2019-02-26T12:26:25.346Z,44.77
2019-02-26T12:28:54.807Z,44.27
2019-02-26T12:31:28.406Z,43.44
2019-02-26T12:33:56.983Z,43.47
2019-02-26T12:36:29.930Z,43.78
2019-02-26T12:39:00.012Z,43.69
2019-02-26T12:41:33.348Z,44.05
2019-02-26T12:44:08.133Z,43.69
2019-02-26T12:46:35.556Z,43.24
2019-02-26T12:49:06.724Z,44.36
2019-02-26T12:51:37.300Z,43.92
2019-02-26T12:54:10.048Z,43.25
2019-02-26T12:56:39.583Z,43.96
2019-02-26T12:59:09.608Z,43.68
2019-02-26T13:01:42.180Z,42.33
2019-02-26T13:04:12.983Z,42.15
2019-02-26T13:06:47.735Z,41.41
2019-02-26T13:09:14.767Z,41.75
2019-02-26T13:12:00.543Z,41.84
2019-02-26T13:14:16.500Z,41.71
2019-02-26T13:16:48.614Z,41.50
2019-02-26T13:19:21.846Z,41.42
2019-02-26T13:21:51.782Z,40.33
2019-02-26T13:24:26.102Z,40.43
2019-02-26T13:26:54.495Z,40.48
2019-02-26T13:29:25.266Z,40.17
2019-02-26T13:31:59.601Z,39.87
2019-02-26T13:34:27.669Z,39.73
2019-02-26T13:36:59.583Z,39.69
2019-02-26T13:39:38.661Z,39.62
2019-02-26T13:42:05.711Z,39.70
2019-02-26T13:44:34.426Z,38.95
2019-02-26T13:47:06.497Z,38.25
2019-02-26T13:49:36.632Z,38.28
2019-02-26T13:52:06.610Z,38.99
2019-02-26T13:54:36.909Z,38.37
2019-02-26T13:57:09.119Z,37.73
2019-02-26T13:59:38.908Z,37.73
2019-02-26T14:02:09.518Z,37.37
2019-02-26T14:04:39.593Z,37.68
2019-02-26T14:07:09.583Z,37.68
2019-02-26T14:09:39.569Z,37.92
2019-02-26T14:12:09.577Z,36.54
2019-02-26T14:14:39.540Z,37.01
2019-02-26T14:17:12.158Z,36.41
2019-02-26T14:19:42.386Z,36.69
2019-02-26T14:22:12.602Z,35.80
2019-02-26T14:24:42.935Z,35.10
2019-02-26T14:27:13.467Z,34.23
2019-02-26T14:29:43.493Z,34.90
2019-02-26T14:32:13.415Z,34.57
2019-02-26T14:34:43.789Z,34.63
2019-02-26T14:37:13.731Z,34.15
2019-02-26T14:39:43.681Z,34.29
2019-02-26T14:42:13.697Z,34.02
2019-02-26T14:44:43.658Z,33.47
2019-02-26T14:47:13.705Z,32.94
2019-02-26T14:49:43.715Z,31.62
2019-02-26T14:52:13.758Z,31.09
2019-02-26T14:54:43.735Z,30.72
2019-02-26T14:57:14.303Z,30.59
2019-02-26T14:59:44.270Z,30.71
2019-02-26T15:02:14.248Z,30.65
2019-02-26T15:04:45.865Z,30.43
2019-02-26T15:07:16.184Z,30.94
2019-02-26T15:09:46.460Z,31.46
2019-02-26T15:12:16.808Z,31.70
2019-02-26T15:14:48.814Z,32.08
2019-02-26T15:17:19.723Z,32.19
2019-02-26T15:19:53.138Z,32.13
2019-02-26T15:22:21.644Z,32.91
2019-02-26T15:24:51.596Z,33.73
2019-02-26T15:27:21.978Z,33.70
2019-02-26T15:29:52.663Z,34.73
2019-02-26T15:32:22.836Z,35.90
2019-02-26T15:34:53.150Z,36.18
2019-02-26T15:37:23.133Z,37.08
2019-02-26T15:39:53.114Z,37.53
2019-02-26T15:42:23.133Z,38.37
2019-02-26T15:44:53.789Z,39.07
2019-02-26T15:47:23.674Z,39.40
2019-02-26T15:49:53.643Z,39.37
2019-02-26T15:52:24.313Z,40.98
2019-02-26T15:54:57.509Z,41.08
2019-02-26T15:57:26.176Z,40.90
2019-02-26T15:59:56.078Z,41.61
2019-02-26T16:02:28.576Z,41.64
2019-02-26T16:04:58.741Z,42.35
2019-02-26T16:07:28.852Z,42.98
2019-02-26T16:09:58.804Z,44.09
2019-02-26T16:12:28.780Z,45.09
2019-02-26T16:14:58.780Z,43.90
2019-02-26T16:17:29.440Z,43.76
2019-02-26T16:19:59.666Z,43.83
2019-02-26T16:22:29.639Z,44.27
2019-02-26T16:24:59.770Z,44.86
2019-02-26T16:27:37.561Z,46.87
2019-02-26T16:30:02.800Z,46.73
2019-02-26T16:32:32.755Z,46.91
2019-02-26T16:35:03.069Z,47.96
2019-02-26T16:37:33.065Z,46.80
2019-02-26T16:40:03.067Z,46.24
2019-02-26T16:42:33.228Z,46.09
2019-02-26T16:45:03.220Z,47.14
2019-02-26T16:47:33.925Z,48.44
2019-02-26T16:50:12.483Z,49.74
2019-02-26T16:52:36.115Z,50.16
2019-02-26T16:55:06.567Z,50.43
2019-02-26T16:57:36.563Z,50.07
2019-02-26T17:00:07.741Z,51.33
2019-02-26T17:02:39.046Z,52.37
2019-02-26T17:05:09.684Z,53.49
2019-02-26T17:07:42.528Z,54.06
2019-02-26T17:10:14.649Z,54.71
2019-02-26T17:12:46.252Z,55.10
2019-02-26T17:15:19.202Z,55.66
2019-02-26T17:17:49.554Z,55.59
2019-02-26T17:20:22.628Z,55.96
2019-02-26T17:22:51.242Z,56.09
2019-02-26T17:25:21.485Z,56.25
2019-02-26T17:27:51.466Z,55.97
2019-02-26T17:30:23.903Z,57.12
2019-02-26T17:32:53.101Z,56.64
2019-02-26T17:35:23.124Z,56.16
2019-02-26T17:37:53.422Z,56.01
2019-02-26T17:40:23.392Z,56.23
2019-02-26T17:42:54.364Z,56.79
2019-02-26T17:45:24.609Z,56.92
2019-02-26T17:47:56.789Z,56.73
2019-02-26T17:50:28.852Z,57.08
2019-02-26T17:52:58.738Z,57.00
2019-02-26T17:55:28.864Z,56.83
2019-02-26T17:58:00.679Z,57.04
2019-02-26T18:00:32.261Z,57.37
2019-02-26T18:03:06.455Z,57.35
2019-02-26T18:05:39.387Z,58.01
2019-02-26T18:08:07.816Z,58.00
2019-02-26T18:10:37.776Z,57.87
2019-02-26T18:13:07.760Z,58.05
2019-02-26T18:15:37.745Z,58.31
2019-02-26T18:18:08.125Z,58.76
2019-02-26T18:20:40.775Z,59.03
2019-02-26T18:23:10.908Z,58.94
2019-02-26T18:25:41.125Z,59.11
2019-02-26T18:28:11.471Z,59.32
2019-02-26T18:30:41.786Z,59.57
2019-02-26T18:33:11.909Z,59.67
2019-02-26T18:35:42.033Z,59.84
2019-02-26T18:38:11.993Z,59.83
2019-02-26T18:40:41.984Z,59.92
2019-02-26T18:43:14.311Z,59.98
2019-02-26T18:45:44.022Z,60.35
2019-02-26T18:48:15.086Z,60.65
2019-02-26T18:50:45.667Z,61.07
2019-02-26T18:53:15.596Z,61.51
2019-02-26T18:55:46.974Z,61.49
2019-02-26T18:58:17.298Z,61.58
2019-02-26T19:00:48.276Z,61.46
2019-02-26T19:03:18.309Z,61.45
2019-02-26T19:05:48.556Z,61.66
2019-02-26T19:08:19.085Z,61.64
2019-02-26T19:10:52.821Z,61.73
2019-02-26T19:13:21.982Z,61.80
2019-02-26T19:15:52.009Z,61.95
2019-02-26T19:18:22.344Z,62.08
2019-02-26T19:20:52.774Z,62.12
2019-02-26T19:23:22.995Z,62.69
2019-02-26T19:25:53.021Z,62.86
2019-02-26T19:28:25.634Z,62.73
2019-02-26T19:30:54.574Z,62.87
2019-02-26T19:33:24.884Z,63.43
2019-02-26T19:35:55.752Z,63.72
2019-02-26T19:38:27.669Z,63.64
2019-02-26T19:40:58.701Z,63.36
2019-02-26T19:43:28.915Z,63.48
2019-02-26T19:45:59.999Z,63.47
2019-02-26T19:48:30.945Z,63.54
2019-02-26T19:51:01.605Z,63.45
2019-02-26T19:53:34.432Z,63.61
2019-02-26T19:56:03.403Z,63.55
2019-02-26T19:58:33.370Z,63.46
2019-02-26T20:01:03.998Z,63.31
2019-02-26T20:03:39.956Z,63.21
2019-02-26T20:06:05.616Z,63.29
2019-02-26T20:08:35.502Z,63.61
2019-02-26T20:11:05.456Z,63.96
2019-02-26T20:13:35.613Z,64.08
2019-02-26T20:16:05.594Z,64.40
2019-02-26T20:18:36.076Z,64.23
2019-02-26T20:21:06.036Z,64.27
2019-02-26T20:23:36.032Z,64.42
2019-02-26T20:26:07.722Z,64.75
2019-02-26T20:28:38.088Z,65.12
2019-02-26T20:31:08.336Z,65.52
2019-02-26T20:33:38.302Z,65.93
2019-02-26T20:36:08.247Z,66.12
2019-02-26T20:38:38.252Z,66.29
2019-02-26T20:41:08.195Z,66.52
2019-02-26T20:43:38.075Z,66.34
2019-02-26T20:46:08.017Z,66.37
2019-02-26T20:48:38.107Z,66.55
2019-02-26T20:51:08.121Z,66.80
2019-02-26T20:53:38.899Z,66.83
2019-02-26T20:56:09.506Z,66.92
2019-02-26T20:58:39.471Z,67.17
2019-02-26T21:01:09.794Z,67.26
2019-02-26T21:03:40.913Z,67.58
2019-02-26T21:06:11.020Z,67.34
2019-02-26T21:08:42.659Z,67.41
2019-02-26T21:11:12.606Z,67.97
2019-02-26T21:13:42.617Z,67.39
2019-02-26T21:16:12.888Z,67.25
2019-02-26T21:18:42.933Z,67.23
2019-02-26T21:21:14.114Z,67.50
2019-02-26T21:23:44.682Z,67.74
2019-02-26T21:26:14.627Z,67.88
2019-02-26T21:28:44.682Z,68.04
2019-02-26T21:31:16.721Z,68.21
2019-02-26T21:33:46.446Z,68.22
2019-02-26T21:36:16.697Z,68.45
2019-02-26T21:38:46.752Z,68.54
2019-02-26T21:41:16.720Z,68.29
2019-02-26T21:43:46.725Z,68.34
2019-02-26T21:46:16.705Z,68.51
2019-02-26T21:48:47.085Z,68.20
2019-02-26T21:51:17.059Z,68.20
2019-02-26T21:53:49.188Z,68.27
2019-02-26T21:56:19.071Z,68.58
2019-02-26T21:58:48.878Z,68.70
2019-02-26T22:01:18.852Z,68.89
2019-02-26T22:03:48.941Z,68.88
2019-02-26T22:06:19.241Z,68.94
2019-02-26T22:08:49.148Z,68.94
2019-02-26T22:11:19.195Z,69.11
2019-02-26T22:13:50.149Z,69.59
2019-02-26T22:16:20.545Z,69.26
2019-02-26T22:18:50.609Z,69.03
2019-02-26T22:21:20.599Z,69.36
2019-02-26T22:23:50.530Z,69.18
2019-02-26T22:26:20.484Z,69.35
2019-02-26T22:28:50.468Z,69.74
2019-02-26T22:31:20.477Z,69.87
2019-02-26T22:33:50.464Z,69.46
2019-02-26T22:36:20.421Z,69.13
2019-02-26T22:38:50.408Z,69.31
2019-02-26T22:41:20.708Z,69.44
2019-02-26T22:43:50.718Z,69.63
2019-02-26T22:46:20.680Z,69.45
2019-02-26T22:48:50.646Z,69.71
2019-02-26T22:51:20.899Z,69.87
2019-02-26T22:53:50.916Z,69.58
2019-02-26T22:56:21.924Z,69.50
2019-02-26T22:58:52.507Z,69.61
2019-02-26T23:01:36.216Z,69.91
2019-02-26T23:04:06.069Z,70.21
2019-02-26T23:06:36.098Z,70.25
2019-02-26T23:09:09.550Z,70.27
2019-02-26T23:11:41.419Z,70.35
2019-02-26T23:14:11.463Z,70.05
2019-02-26T23:16:41.798Z,69.82
2019-02-26T23:19:12.218Z,69.80
2019-02-26T23:21:43.212Z,69.67
2019-02-26T23:24:13.497Z,69.28
2019-02-26T23:26:43.642Z,69.26
2019-02-26T23:29:13.687Z,69.33
2019-02-26T23:31:43.708Z,69.29
2019-02-26T23:34:14.754Z,69.63
2019-02-26T23:36:44.703Z,69.91
2019-02-26T23:39:15.523Z,70.00
2019-02-26T23:41:47.390Z,70.02
2019-02-26T23:44:18.121Z,69.90
2019-02-26T23:46:48.623Z,70.10
2019-02-26T23:49:18.981Z,70.00
2019-02-26T23:51:50.977Z,70.05
2019-02-26T23:54:21.018Z,70.21
2019-02-26T23:56:52.088Z,70.36
2019-02-26T23:59:22.688Z,70.46
